createdAt,value
2019-01-28T00:00:21.318Z,95775.92
2019-01-28T00:02:49.741Z,95784.14
2019-01-28T00:05:19.640Z,95787.78
2019-01-28T00:07:48.990Z,95794.89
2019-01-28T00:10:19.594Z,95801.52
2019-01-28T00:12:49.528Z,95800.23
2019-01-28T00:15:20.049Z,95800.23
2019-01-28T00:17:49.992Z,95805.15
2019-01-28T00:20:20.444Z,95812.27
2019-01-28T00:22:50.339Z,95809.66
2019-01-28T00:25:21.719Z,95816.25
2019-01-28T00:27:52.273Z,95819.54
2019-01-28T00:30:22.634Z,95818.78
2019-01-28T00:32:52.078Z,95828.75
2019-01-28T00:35:22.380Z,95745.81
2019-01-28T00:37:52.338Z,95838.87
2019-01-28T00:40:22.153Z,95837.95
2019-01-28T00:42:52.078Z,95838.11
2019-01-28T00:45:22.414Z,95838.95
2019-01-28T00:47:52.449Z,95829.84
2019-01-28T00:50:21.922Z,95826.51
2019-01-28T00:52:52.240Z,95826.91
2019-01-28T00:55:21.235Z,95822.59
2019-01-28T00:57:51.282Z,95829.66
2019-01-28T01:00:25.801Z,95831.09
2019-01-28T01:02:55.591Z,95831.32
2019-01-28T01:05:25.592Z,95838.69
2019-01-28T01:07:54.725Z,95831.63
2019-01-28T01:10:24.770Z,95840.56
2019-01-28T01:12:54.699Z,95839.44
2019-01-28T01:15:25.134Z,95842.14
2019-01-28T01:17:53.986Z,95838.80
2019-01-28T01:20:24.020Z,95849.77
2019-01-28T01:22:53.869Z,95837.09
2019-01-28T01:25:24.529Z,95840.97
2019-01-28T01:27:54.874Z,95840.69
2019-01-28T01:30:24.703Z,95833.77
2019-01-28T01:32:54.982Z,95836.14
2019-01-28T01:35:26.238Z,95837.50
2019-01-28T01:37:57.537Z,95835.12
2019-01-28T01:43:18.537Z,95835.69
2019-01-28T01:45:50.442Z,95835.41
2019-01-28T01:48:20.833Z,95829.25
2019-01-28T01:50:50.675Z,95827.58
2019-01-28T01:53:41.622Z,95823.98
2019-01-28T01:56:11.557Z,95823.87
2019-01-28T01:58:44.986Z,95819.54
2019-01-28T02:01:15.981Z,95808.78
2019-01-28T02:03:45.849Z,95813.14
2019-01-28T02:06:15.334Z,95807.13
2019-01-28T02:08:44.250Z,95804.27
2019-01-28T02:11:15.995Z,95794.14
2019-01-28T02:13:45.911Z,95795.49
2019-01-28T02:16:15.211Z,95786.86
2019-01-28T02:18:45.415Z,95782.77
2019-01-28T02:21:16.145Z,95780.58
2019-01-28T02:23:46.130Z,95778.90
2019-01-28T02:26:16.865Z,95771.66
2019-01-28T02:28:46.605Z,95779.58
2019-01-28T02:31:16.774Z,95778.70
2019-01-28T02:34:06.844Z,95772.34
2019-01-28T02:36:35.403Z,95768.02
2019-01-28T02:39:06.846Z,95766.69
2019-01-28T02:41:36.455Z,95772.43
2019-01-28T02:44:06.686Z,95762.64
2019-01-28T02:46:36.935Z,95762.91
2019-01-28T02:49:06.188Z,95766.83
2019-01-28T02:51:36.450Z,95765.52
2019-01-28T02:54:06.934Z,95761.84
2019-01-28T02:56:36.971Z,95761.52
2019-01-28T02:59:06.292Z,95769.85
2019-01-28T03:01:43.030Z,95769.66
2019-01-28T03:04:11.715Z,95769.59
2019-01-28T03:06:41.646Z,95776.77
2019-01-28T03:09:11.799Z,95779.45
2019-01-28T03:11:43.775Z,95767.24
2019-01-28T03:14:12.091Z,95765.81
2019-01-28T03:16:42.201Z,95772.41
2019-01-28T03:19:11.743Z,95775.38
2019-01-28T03:21:42.437Z,95770.81
2019-01-28T03:24:13.462Z,95769.25
2019-01-28T03:26:43.574Z,95770.31
2019-01-28T03:29:13.349Z,95769.19
2019-01-28T03:31:42.157Z,95772.37
2019-01-28T03:34:11.989Z,95772.07
2019-01-28T03:36:42.425Z,95764.95
2019-01-28T03:39:11.951Z,95769.02
2019-01-28T03:41:42.433Z,95767.84
2019-01-28T03:44:12.316Z,95760.05
2019-01-28T03:46:42.585Z,95768.05
2019-01-28T03:49:12.709Z,95770.70
2019-01-28T03:51:42.270Z,95761.67
2019-01-28T03:54:11.963Z,95764.33
2019-01-28T03:56:42.080Z,95763.98
2019-01-28T03:59:11.628Z,95766.16
2019-01-28T04:01:41.764Z,95762.56
2019-01-28T04:04:13.937Z,95765.25
2019-01-28T04:06:42.783Z,95759.53
2019-01-28T04:09:13.055Z,95762.94
2019-01-28T04:11:44.385Z,95773.18
2019-01-28T04:14:13.396Z,95767.48
2019-01-28T04:16:43.826Z,95765.66
2019-01-28T04:19:13.669Z,95770.14
2019-01-28T04:21:44.522Z,95771.12
2019-01-28T04:24:16.050Z,95777.92
2019-01-28T04:26:45.715Z,95777.83
2019-01-28T04:29:15.862Z,95786.19
2019-01-28T04:31:48.812Z,95782.45
2019-01-28T04:34:18.971Z,95780.58
2019-01-28T04:36:49.069Z,95786.47
2019-01-28T04:39:19.273Z,95788.05
2019-01-28T04:41:49.273Z,95778.49
2019-01-28T04:44:19.450Z,95780.09
2019-01-28T04:46:49.448Z,95785.98
2019-01-28T04:49:19.111Z,95785.02
2019-01-28T04:51:48.616Z,95782.32
2019-01-28T04:54:18.125Z,95781.52
2019-01-28T04:56:46.824Z,95779.81
2019-01-28T04:59:16.762Z,95774.69
2019-01-28T05:01:46.585Z,95775.61
2019-01-28T05:04:16.213Z,95777.47
2019-01-28T05:06:46.255Z,95771.02
2019-01-28T05:09:15.468Z,95773.93
2019-01-28T05:11:45.080Z,95774.27
2019-01-28T05:14:14.918Z,95772.85
2019-01-28T05:16:44.200Z,95767.31
2019-01-28T05:19:13.240Z,95773.34
2019-01-28T05:21:41.921Z,95768.56
2019-01-28T05:24:10.501Z,95770.41
2019-01-28T05:26:38.894Z,95764.20
2019-01-28T05:29:07.384Z,95763.23
2019-01-28T05:31:35.729Z,95760.11
2019-01-28T05:34:04.177Z,95761.02
2019-01-28T05:36:32.558Z,95759.48
2019-01-28T05:39:00.873Z,95756.31
2019-01-28T05:41:29.217Z,95758.91
2019-01-28T05:43:58.046Z,95766.64
2019-01-28T05:46:26.631Z,95761.05
2019-01-28T05:48:54.939Z,95762.53
2019-01-28T05:51:23.457Z,95759.58
2019-01-28T05:53:52.160Z,95768.78
2019-01-28T05:56:20.555Z,95772.98
2019-01-28T05:58:49.536Z,95771.41
2019-01-28T06:01:18.078Z,95769.27
2019-01-28T06:03:46.396Z,95772.85
2019-01-28T06:06:14.703Z,95768.63
2019-01-28T06:08:43.246Z,95772.28
2019-01-28T06:11:11.515Z,95772.78
2019-01-28T06:13:39.917Z,95770.94
2019-01-28T06:16:08.350Z,95774.63
2019-01-28T06:18:36.699Z,95773.83
2019-01-28T06:21:05.204Z,95775.72
2019-01-28T06:23:34.256Z,95778.09
2019-01-28T06:26:02.627Z,95780.23
2019-01-28T06:28:31.041Z,95776.57
2019-01-28T06:30:59.426Z,95780.77
2019-01-28T06:33:27.916Z,95783.95
2019-01-28T06:35:56.248Z,95781.87
2019-01-28T06:38:24.572Z,95783.98
2019-01-28T06:40:53.028Z,95791.16
2019-01-28T06:43:21.425Z,95783.53
2019-01-28T06:45:49.725Z,95785.15
2019-01-28T06:48:18.446Z,95782.76
2019-01-28T06:50:46.773Z,95786.73
2019-01-28T06:53:15.111Z,95780.14
2019-01-28T06:55:43.492Z,95781.50
2019-01-28T06:58:12.102Z,95783.34
2019-01-28T07:00:40.495Z,95790.44
2019-01-28T07:03:08.980Z,95785.63
2019-01-28T07:05:37.623Z,95789.00
2019-01-28T07:08:06.367Z,95789.52
2019-01-28T07:10:34.849Z,95788.73
2019-01-28T07:13:03.290Z,95789.52
2019-01-28T07:15:31.697Z,95787.02
2019-01-28T07:18:00.053Z,95791.94
2019-01-28T07:20:31.498Z,95791.45
2019-01-28T07:23:00.276Z,95806.52
2019-01-28T07:25:28.790Z,95792.96
2019-01-28T07:27:57.465Z,95790.68
2019-01-28T07:30:33.803Z,95798.78
2019-01-28T07:33:02.165Z,95790.31
2019-01-28T07:35:30.500Z,95802.70
2019-01-28T07:37:58.857Z,95799.20
2019-01-28T07:40:29.058Z,95797.30
2019-01-28T07:42:57.358Z,95794.80
2019-01-28T07:45:30.708Z,95797.73
2019-01-28T07:48:03.058Z,95795.33
2019-01-28T07:50:29.434Z,95803.27
2019-01-28T07:52:57.874Z,95801.58
2019-01-28T07:55:26.394Z,95805.31
2019-01-28T07:57:54.720Z,95803.38
2019-01-28T08:00:25.597Z,95796.13
2019-01-28T08:02:54.000Z,95798.62
2019-01-28T08:05:22.499Z,95801.56
2019-01-28T08:07:50.894Z,95800.35
2019-01-28T08:10:20.546Z,95804.08
2019-01-28T08:12:49.006Z,95798.65
2019-01-28T08:15:26.216Z,95805.02
2019-01-28T08:17:54.552Z,95803.35
2019-01-28T08:20:23.201Z,95806.50
2019-01-28T08:22:51.592Z,95799.34
2019-01-28T08:25:21.145Z,95798.37
2019-01-28T08:27:50.030Z,95791.88
2019-01-28T08:30:28.191Z,95791.64
2019-01-28T08:32:56.577Z,95786.27
2019-01-28T08:35:25.817Z,95793.05
2019-01-28T08:37:54.285Z,95786.75
2019-01-28T08:40:23.022Z,95793.10
2019-01-28T08:42:51.423Z,95797.95
2019-01-28T08:45:19.720Z,95793.78
2019-01-28T08:47:48.125Z,95781.48
2019-01-28T08:50:21.613Z,95788.95
2019-01-28T08:52:50.117Z,95797.19
2019-01-28T08:55:20.373Z,95793.92
2019-01-28T08:57:49.408Z,95791.08
2019-01-28T09:00:23.765Z,95795.64
2019-01-28T09:02:53.160Z,95801.84
2019-01-28T09:05:22.431Z,95803.02
2019-01-28T09:07:51.012Z,95797.55
2019-01-28T09:10:25.495Z,95796.39
2019-01-28T09:12:53.950Z,95799.27
2019-01-28T09:15:23.548Z,95805.55
2019-01-28T09:17:51.890Z,95801.45
2019-01-28T09:20:25.784Z,95802.92
2019-01-28T09:22:54.263Z,95802.86
2019-01-28T09:25:23.121Z,95800.84
2019-01-28T09:27:51.587Z,95811.88
2019-01-28T09:30:31.653Z,95803.07
2019-01-28T09:33:00.185Z,95810.32
2019-01-28T09:35:28.591Z,95805.27
2019-01-28T09:37:57.329Z,95810.29
2019-01-28T09:40:31.053Z,95806.05
2019-01-28T09:42:59.600Z,95814.35
2019-01-28T09:45:33.924Z,95817.72
2019-01-28T09:48:02.338Z,95825.48
2019-01-28T09:50:30.869Z,95813.84
2019-01-28T09:52:59.395Z,95813.70
2019-01-28T09:55:27.834Z,95822.03
2019-01-28T09:57:56.990Z,95810.47
2019-01-28T10:00:31.193Z,95829.00
2019-01-28T10:02:59.775Z,95820.09
2019-01-28T10:05:28.325Z,95820.84
2019-01-28T10:07:56.742Z,95829.06
2019-01-28T10:10:25.230Z,95827.13
2019-01-28T10:12:53.926Z,95823.06
2019-01-28T10:15:28.490Z,95830.69
2019-01-28T10:17:55.654Z,95830.81
2019-01-28T10:20:29.489Z,95824.87
2019-01-28T10:22:57.889Z,95829.14
2019-01-28T10:25:26.249Z,95830.26
2019-01-28T10:27:54.660Z,95829.72
2019-01-28T10:30:34.535Z,95836.78
2019-01-28T10:33:03.576Z,95842.39
2019-01-28T10:35:32.515Z,95823.30
2019-01-28T10:38:01.001Z,95845.63
2019-01-28T10:40:31.649Z,95812.26
2019-01-28T10:43:00.305Z,95842.17
2019-01-28T10:45:28.723Z,95835.74
2019-01-28T10:48:00.651Z,95839.70
2019-01-28T10:50:28.294Z,95839.87
2019-01-28T10:52:56.865Z,95823.81
2019-01-28T10:55:26.203Z,95838.41
2019-01-28T10:57:54.973Z,95833.48
2019-01-28T11:00:26.301Z,95839.63
2019-01-28T11:02:55.668Z,95834.27
2019-01-28T11:05:24.206Z,95836.80
2019-01-28T11:07:52.697Z,95824.63
2019-01-28T11:10:30.293Z,95827.77
2019-01-28T11:12:58.690Z,95827.83
2019-01-28T11:15:30.937Z,95830.45
2019-01-28T11:18:02.719Z,95826.66
2019-01-28T11:20:31.252Z,95819.44
2019-01-28T11:23:00.278Z,95812.77
2019-01-28T11:25:32.694Z,95819.59
2019-01-28T11:28:01.249Z,95813.84
2019-01-28T11:30:43.406Z,95819.38
2019-01-28T11:33:11.902Z,95822.45
2019-01-28T11:35:41.646Z,95823.39
2019-01-28T11:38:10.424Z,95819.84
2019-01-28T11:40:38.836Z,95808.70
2019-01-28T11:43:07.582Z,95816.91
2019-01-28T11:45:45.345Z,95807.63
2019-01-28T11:48:14.045Z,95810.87
2019-01-28T11:50:42.564Z,95812.02
2019-01-28T11:53:11.906Z,95816.69
2019-01-28T11:55:40.448Z,95810.15
2019-01-28T11:58:08.833Z,95820.17
2019-01-28T12:00:56.250Z,95816.22
2019-01-28T12:03:24.436Z,95809.21
2019-01-28T12:05:52.817Z,95824.16
2019-01-28T12:08:21.268Z,95818.63
2019-01-28T12:10:49.764Z,95825.66
2019-01-28T12:13:18.278Z,95821.42
2019-01-28T12:15:47.087Z,95826.59
2019-01-28T12:18:18.611Z,95826.31
2019-01-28T12:20:53.516Z,95827.31
2019-01-28T12:23:17.220Z,95830.22
2019-01-28T12:25:45.552Z,95845.63
2019-01-28T12:28:14.035Z,95830.40
2019-01-28T12:30:42.511Z,95831.09
2019-01-28T12:33:12.438Z,95841.75
2019-01-28T12:35:41.021Z,95834.56
2019-01-28T12:38:09.753Z,95838.19
2019-01-28T12:40:38.448Z,95841.33
2019-01-28T12:43:07.130Z,95853.62
2019-01-28T12:45:35.529Z,95844.20
2019-01-28T12:48:04.176Z,95844.45
2019-01-28T12:50:32.625Z,95837.47
2019-01-28T12:53:01.391Z,95850.62
2019-01-28T12:55:29.781Z,95847.33
2019-01-28T12:57:58.190Z,95837.63
2019-01-28T13:00:31.543Z,95843.73
2019-01-28T13:02:59.942Z,95850.96
2019-01-28T13:05:28.391Z,95853.00
2019-01-28T13:07:56.797Z,95859.36
2019-01-28T13:10:26.073Z,95864.13
2019-01-28T13:12:54.766Z,95862.80
2019-01-28T13:15:31.136Z,95865.14
2019-01-28T13:17:59.686Z,95861.95
2019-01-28T13:20:28.317Z,95863.88
2019-01-28T13:22:56.749Z,95882.97
2019-01-28T13:25:27.996Z,95860.63
2019-01-28T13:27:56.397Z,95871.92
2019-01-28T13:30:27.410Z,95868.25
2019-01-28T13:32:56.968Z,95877.59
2019-01-28T13:35:25.457Z,95880.58
2019-01-28T13:37:53.996Z,95883.06
2019-01-28T13:40:22.563Z,95882.55
2019-01-28T13:42:50.939Z,95883.13
2019-01-28T13:45:20.780Z,95883.52
2019-01-28T13:47:50.192Z,95883.72
2019-01-28T13:50:20.616Z,95888.77
2019-01-28T13:52:49.379Z,95894.45
2019-01-28T13:55:18.510Z,95890.49
2019-01-28T13:57:46.830Z,95900.47
2019-01-28T14:00:18.398Z,95907.48
2019-01-28T14:02:46.969Z,95903.48
2019-01-28T14:05:15.582Z,95896.08
2019-01-28T14:07:44.210Z,95907.84
2019-01-28T14:10:15.156Z,95916.52
2019-01-28T14:12:43.704Z,95913.20
2019-01-28T14:15:17.950Z,95918.13
2019-01-28T14:17:46.250Z,95918.13
2019-01-28T14:20:17.803Z,95924.27
2019-01-28T14:22:48.048Z,95922.47
2019-01-28T14:25:16.860Z,95918.17
2019-01-28T14:27:49.815Z,95931.64
2019-01-28T14:30:40.467Z,95933.59
2019-01-28T14:33:11.152Z,95931.23
2019-01-28T14:35:40.101Z,95932.25
2019-01-28T14:38:09.537Z,95937.53
2019-01-28T14:40:39.188Z,95937.27
2019-01-28T14:43:07.674Z,95943.42
2019-01-28T14:45:36.124Z,95940.48
2019-01-28T14:48:05.816Z,95944.72
2019-01-28T14:50:38.240Z,95950.28
2019-01-28T14:53:06.805Z,95950.55
2019-01-28T14:55:35.450Z,95947.68
2019-01-28T14:58:04.463Z,95961.47
2019-01-28T15:00:38.248Z,95972.91
2019-01-28T15:03:06.821Z,95966.28
2019-01-28T15:05:35.489Z,95972.95
2019-01-28T15:08:04.420Z,95976.69
2019-01-28T15:10:32.847Z,95973.41
2019-01-28T15:13:01.330Z,95980.39
2019-01-28T15:15:35.477Z,95988.00
2019-01-28T15:18:04.497Z,95979.53
2019-01-28T15:20:32.966Z,95992.52
2019-01-28T15:23:01.943Z,95989.94
2019-01-28T15:25:30.296Z,95991.27
2019-01-28T15:27:58.972Z,96001.84
2019-01-28T15:30:29.485Z,96003.19
2019-01-28T15:32:58.217Z,96001.54
2019-01-28T15:35:26.681Z,96014.61
2019-01-28T15:37:55.108Z,96016.81
2019-01-28T15:40:26.546Z,96020.19
2019-01-28T15:42:55.051Z,96030.01
2019-01-28T15:45:26.324Z,96032.72
2019-01-28T15:47:54.681Z,96026.66
2019-01-28T15:50:23.185Z,96040.20
2019-01-28T15:52:51.573Z,96042.84
2019-01-28T15:55:29.086Z,96046.66
2019-01-28T15:57:59.899Z,96051.69
2019-01-28T16:00:30.888Z,96052.19
2019-01-28T16:02:59.345Z,96053.25
2019-01-28T16:05:27.788Z,96059.63
2019-01-28T16:07:56.679Z,96071.52
2019-01-28T16:10:25.260Z,96064.89
2019-01-28T16:12:53.616Z,96065.37
2019-01-28T16:15:31.104Z,96068.06
2019-01-28T16:17:59.501Z,96076.58
2019-01-28T16:20:28.015Z,96086.96
2019-01-28T16:22:56.450Z,96084.27
2019-01-28T16:25:24.954Z,96094.66
2019-01-28T16:27:53.355Z,96102.53
2019-01-28T16:30:29.814Z,96108.36
2019-01-28T16:32:58.252Z,96103.33
2019-01-28T16:35:26.760Z,96121.08
2019-01-28T16:37:55.405Z,96121.94
2019-01-28T16:40:28.546Z,96128.78
2019-01-28T16:42:57.947Z,96130.62
2019-01-28T16:45:26.539Z,96133.80
2019-01-28T16:47:55.010Z,96142.81
2019-01-28T16:50:27.085Z,96144.39
2019-01-28T16:52:55.888Z,96149.65
2019-01-28T16:55:25.226Z,96155.20
2019-01-28T16:57:54.003Z,96157.87
2019-01-28T17:00:33.148Z,96165.29
2019-01-28T17:03:01.737Z,96175.61
2019-01-28T17:05:30.523Z,96170.58
2019-01-28T17:07:58.975Z,96176.99
2019-01-28T17:10:30.024Z,96181.72
2019-01-28T17:12:58.465Z,96187.85
2019-01-28T17:15:26.910Z,96183.93
2019-01-28T17:17:55.307Z,96184.41
2019-01-28T17:20:26.000Z,96196.34
2019-01-28T17:22:54.757Z,96202.42
2019-01-28T17:25:31.587Z,96202.70
2019-01-28T17:28:00.023Z,96207.99
2019-01-28T17:30:36.695Z,96211.70
2019-01-28T17:33:06.191Z,96220.75
2019-01-28T17:35:34.623Z,96226.01
2019-01-28T17:38:04.491Z,96233.13
2019-01-28T17:40:33.587Z,96233.64
2019-01-28T17:43:02.149Z,96238.69
2019-01-28T17:45:31.357Z,96245.80
2019-01-28T17:48:00.335Z,96252.95
2019-01-28T17:50:28.981Z,96250.83
2019-01-28T17:53:00.159Z,96260.65
2019-01-28T17:55:28.689Z,96255.88
2019-01-28T17:57:57.887Z,96266.52
2019-01-28T18:00:29.745Z,96269.17
2019-01-28T18:02:58.495Z,96274.20
2019-01-28T18:05:27.170Z,96272.88
2019-01-28T18:07:55.624Z,96271.30
2019-01-28T18:10:24.183Z,96278.98
2019-01-28T18:12:52.698Z,96284.54
2019-01-28T18:15:23.522Z,96294.09
2019-01-28T18:17:51.891Z,96298.59
2019-01-28T18:20:20.652Z,96297.50
2019-01-28T18:22:49.098Z,96297.27
2019-01-28T18:25:20.289Z,96305.75
2019-01-28T18:27:48.669Z,96305.98
2019-01-28T18:30:24.325Z,96320.86
2019-01-28T18:32:52.813Z,96317.15
2019-01-28T18:35:21.445Z,96311.58
2019-01-28T18:37:49.938Z,96326.69
2019-01-28T18:40:18.958Z,96325.09
2019-01-28T18:42:47.530Z,96325.06
2019-01-28T18:45:20.449Z,96327.19
2019-01-28T18:47:49.201Z,96332.25
2019-01-28T18:50:20.146Z,96325.63
2019-01-28T18:52:48.693Z,96335.44
2019-01-28T18:55:18.763Z,96338.61
2019-01-28T18:57:49.518Z,96342.06
2019-01-28T19:00:26.376Z,96342.06
2019-01-28T19:02:55.885Z,96345.77
2019-01-28T19:05:35.892Z,96346.30
2019-01-28T19:08:06.195Z,96353.46
2019-01-28T19:10:39.075Z,96355.05
2019-01-28T19:13:09.084Z,96361.67
2019-01-28T19:15:39.103Z,96363.27
2019-01-28T19:18:12.295Z,96369.36
2019-01-28T19:20:42.292Z,96372.55
2019-01-28T19:23:11.062Z,96380.23
2019-01-28T19:25:39.489Z,96375.72
2019-01-28T19:28:07.973Z,96383.70
2019-01-28T19:30:36.272Z,96391.38
2019-01-28T19:33:05.362Z,96399.84
2019-01-28T19:35:33.897Z,96405.16
2019-01-28T19:38:02.462Z,96414.70
2019-01-28T19:40:30.977Z,96414.44
2019-01-28T19:42:59.697Z,96426.34
2019-01-28T19:45:28.320Z,96424.77
2019-01-28T19:47:56.725Z,96425.56
2019-01-28T19:50:25.219Z,96429.01
2019-01-28T19:52:53.794Z,96427.67
2019-01-28T19:55:22.157Z,96431.93
2019-01-28T19:57:50.560Z,96436.70
2019-01-28T20:00:21.679Z,96453.12
2019-01-28T20:02:50.223Z,96449.93
2019-01-28T20:05:18.828Z,96459.77
2019-01-28T20:07:47.404Z,96461.60
2019-01-28T20:10:15.914Z,96470.62
2019-01-28T20:12:44.483Z,96472.22
2019-01-28T20:15:41.397Z,96474.35
2019-01-28T20:18:09.892Z,96476.20
2019-01-28T20:20:38.568Z,96484.41
2019-01-28T20:23:07.058Z,96481.77
2019-01-28T20:25:37.419Z,96484.41
2019-01-28T20:28:05.874Z,96486.53
2019-01-28T20:30:34.400Z,96488.66
2019-01-28T20:33:02.844Z,96493.42
2019-01-28T20:35:31.397Z,96506.96
2019-01-28T20:37:59.755Z,96498.46
2019-01-28T20:40:28.303Z,96506.69
2019-01-28T20:42:56.616Z,96511.45
2019-01-28T20:45:26.073Z,96510.13
2019-01-28T20:47:55.559Z,96518.87
2019-01-28T20:50:46.165Z,96522.06
2019-01-28T20:53:17.102Z,96531.63
2019-01-28T20:55:47.291Z,96528.95
2019-01-28T20:58:15.698Z,96539.31
2019-01-28T21:00:45.949Z,96551.21
2019-01-28T21:03:14.404Z,96554.95
2019-01-28T21:05:45.887Z,96566.89
2019-01-28T21:08:14.679Z,96568.76
2019-01-28T21:10:43.182Z,96574.02
2019-01-28T21:13:13.243Z,96580.94
2019-01-28T21:15:44.099Z,96588.88
2019-01-28T21:18:14.143Z,96541.39
2019-01-28T21:20:43.730Z,96596.86
2019-01-28T21:23:13.030Z,96606.66
2019-01-28T21:25:42.954Z,96611.45
2019-01-28T21:28:11.382Z,96610.39
2019-01-28T21:30:41.411Z,96610.37
2019-01-28T21:33:12.521Z,96616.21
2019-01-28T21:35:45.882Z,96621.25
2019-01-28T21:38:25.697Z,96631.56
2019-01-28T21:40:55.505Z,96622.55
2019-01-28T21:43:25.376Z,96623.58
2019-01-28T21:45:54.123Z,96624.32
2019-01-28T21:48:22.959Z,96631.53
2019-01-28T21:50:51.579Z,96631.53
2019-01-28T21:53:22.090Z,96632.03
2019-01-28T21:55:50.503Z,96629.41
2019-01-28T21:58:19.328Z,96629.94
2019-01-28T22:00:48.273Z,96635.99
2019-01-28T22:03:18.565Z,96636.78
2019-01-28T22:05:46.956Z,96635.73
2019-01-28T22:08:16.358Z,96633.39
2019-01-28T22:10:46.300Z,96641.62
2019-01-28T22:13:14.728Z,96658.09
2019-01-28T22:15:44.668Z,96650.16
2019-01-28T22:18:13.110Z,96656.52
2019-01-28T22:20:44.269Z,96665.50
2019-01-28T22:23:13.850Z,96666.09
2019-01-28T22:25:45.675Z,96666.11
2019-01-28T22:28:16.025Z,96663.72
2019-01-28T22:30:45.742Z,96674.88
2019-01-28T22:33:15.272Z,96672.69
2019-01-28T22:35:43.981Z,96672.16
2019-01-28T22:38:12.310Z,96669.75
2019-01-28T22:40:41.361Z,96675.03
2019-01-28T22:43:10.044Z,96678.41
2019-01-28T22:45:39.332Z,96687.95
2019-01-28T22:48:08.529Z,96687.16
2019-01-28T22:50:38.612Z,96692.13
2019-01-28T22:53:07.555Z,96700.41
2019-01-28T22:55:39.069Z,96700.78
2019-01-28T22:58:08.518Z,96701.02
2019-01-28T23:00:51.557Z,96707.63
2019-01-28T23:03:21.726Z,96644.33
2019-01-28T23:05:50.919Z,96710.28
2019-01-28T23:08:20.768Z,96712.56
2019-01-28T23:10:50.663Z,96718.14
2019-01-28T23:13:21.607Z,96716.81
2019-01-28T23:15:55.434Z,96719.47
2019-01-28T23:18:24.551Z,96713.11
2019-01-28T23:20:53.021Z,96720.31
2019-01-28T23:23:23.732Z,96722.95
2019-01-28T23:25:53.416Z,96718.12
2019-01-28T23:28:21.818Z,96718.67
2019-01-28T23:30:50.761Z,96717.05
2019-01-28T23:33:21.503Z,96718.88
2019-01-28T23:35:50.100Z,96720.85
2019-01-28T23:38:20.813Z,96717.80
2019-01-28T23:40:50.440Z,96718.13
2019-01-28T23:43:21.701Z,96718.66
2019-01-28T23:45:50.061Z,96721.08
2019-01-28T23:48:21.642Z,96713.55
2019-01-28T23:50:51.567Z,96712.56
2019-01-28T23:53:21.891Z,96716.81
2019-01-28T23:55:51.868Z,96723.41
2019-01-28T23:58:21.159Z,96724.97
